Time;durP1;ratioP1;P1;durP2;ratioP2;P2;SDS_P1;SDS_P2;PMS_P1;PMS_P2;Temp;Humidity;BMP_temperature;BMP_pressure;BME280_temperature;BME280_humidity;BME280_pressure;Samples;Min_cycle;Max_cycle;Signal;HPM_P1;HPM_P2
2023/07/26 00:00:04;;;;;;;13.08;7.92;;;;;;;22.65;65.47;99528.75;1779445;79;21286;-56
2023/07/26 00:03:10;;;;;;;10.65;7.87;;;;;;;22.58;65.59;99533.20;1784761;79;21371;-56
2023/07/26 00:06:16;;;;;;;10.60;7.53;;;;;;;22.56;65.75;99510.88;1773095;79;21343;-56
2023/07/26 00:09:23;;;;;;;11.15;7.35;;;;;;;22.53;65.88;99511.44;1768771;80;21335;-55
2023/07/26 00:12:29;;;;;;;11.95;8.10;;;;;;;22.50;65.98;99508.59;1768885;80;21857;-55
2023/07/26 00:15:35;;;;;;;10.90;7.30;;;;;;;22.49;66.09;99508.86;1768285;81;21837;-55
2023/07/26 00:18:41;;;;;;;14.00;8.53;;;;;;;22.47;66.23;99493.80;1768189;81;21339;-55
2023/07/26 00:21:46;;;;;;;11.78;8.83;;;;;;;22.45;66.34;99491.86;1768180;80;21394;-57
2023/07/26 00:24:53;;;;;;;12.73;8.40;;;;;;;22.42;66.41;99488.78;1768590;80;21181;-56
2023/07/26 00:27:59;;;;;;;11.50;7.92;;;;;;;22.40;66.54;99474.26;1768257;80;21339;-55
2023/07/26 00:31:08;;;;;;;13.53;7.62;;;;;;;22.35;66.65;99468.11;1756575;80;21875;-55
2023/07/26 00:34:14;;;;;;;10.30;8.05;;;;;;;22.34;66.76;99462.81;1768169;81;21339;-55
2023/07/26 00:37:19;;;;;;;11.35;7.92;;;;;;;22.32;66.86;99441.33;1768199;80;21344;-56
2023/07/26 00:40:25;;;;;;;11.83;7.67;;;;;;;22.28;66.95;99420.69;1769888;79;21874;-54
2023/07/26 00:43:32;;;;;;;11.93;8.20;;;;;;;22.26;67.04;99420.97;1768189;81;21336;-55
2023/07/26 00:46:38;;;;;;;10.65;8.00;;;;;;;22.24;67.08;99407.84;1768219;80;21340;-54
2023/07/26 00:49:44;;;;;;;13.05;9.35;;;;;;;22.20;67.12;99400.58;1768281;80;21367;-54
2023/07/26 00:52:51;;;;;;;11.88;8.58;;;;;;;22.18;67.19;99407.56;1768600;80;21436;-55
2023/07/26 00:55:58;;;;;;;13.08;8.20;;;;;;;22.15;67.28;99390.81;1768127;81;21331;-56
2023/07/26 00:59:04;;;;;;;12.78;9.20;;;;;;;22.10;67.32;99371.27;1768541;79;21910;-55
2023/07/26 01:02:11;;;;;;;12.10;8.88;;;;;;;22.05;67.35;99349.53;1769040;79;21378;-54
2023/07/26 01:05:17;;;;;;;14.13;8.65;;;;;;;21.99;67.50;99337.52;1769992;80;21285;-54
2023/07/26 01:08:50;;;;;;;14.25;8.90;;;;;;;21.96;67.69;99314.38;1806341;79;21331;-54
2023/07/26 01:12:23;;;;;;;11.18;8.75;;;;;;;21.92;67.79;99302.67;1768634;80;21371;-54
2023/07/26 01:15:33;;;;;;;16.65;8.95;;;;;;;21.87;67.93;99265.88;1806316;79;21342;-55
2023/07/26 01:18:39;;;;;;;9.70;7.97;;;;;;;21.81;68.01;99270.33;1805396;79;21397;-54
2023/07/26 01:21:45;;;;;;;13.93;9.95;;;;;;;21.73;68.07;99264.72;1804424;79;21851;-54
2023/07/26 01:24:52;;;;;;;13.48;8.43;;;;;;;21.67;68.18;99306.22;1768810;80;21867;-54
2023/07/26 01:27:59;;;;;;;11.03;8.65;;;;;;;21.61;68.22;99388.06;1768207;80;21879;-54
2023/07/26 01:31:06;;;;;;;14.87;9.45;;;;;;;21.56;68.37;99367.17;1768396;80;21826;-54
2023/07/26 01:34:14;;;;;;;13.60;9.95;;;;;;;21.51;68.46;99380.22;1806049;79;21374;-54
2023/07/26 01:37:19;;;;;;;14.33;9.60;;;;;;;21.44;68.47;99384.64;1806215;79;21418;-54
2023/07/26 01:40:25;;;;;;;10.75;9.38;;;;;;;21.37;68.58;99365.97;1793809;79;21374;-54
2023/07/26 01:43:32;;;;;;;13.85;9.80;;;;;;;21.31;68.66;99361.45;1805355;79;22147;-54
2023/07/26 01:46:38;;;;;;;13.00;9.70;;;;;;;21.25;68.78;99361.72;1806158;79;21528;-54
2023/07/26 01:49:45;;;;;;;12.47;10.15;;;;;;;21.19;68.93;99352.48;1803778;79;21763;-54
2023/07/26 01:52:55;;;;;;;13.70;9.73;;;;;;;21.17;69.06;99349.12;1767756;80;21836;-54
2023/07/26 01:56:03;;;;;;;13.32;10.03;;;;;;;21.13;69.15;99365.25;1806248;79;21976;-56
2023/07/26 01:59:11;;;;;;;13.65;10.28;;;;;;;21.10;69.29;99360.22;1767262;80;21888;-55
2023/07/26 02:02:17;;;;;;;15.68;10.65;;;;;;;21.06;69.43;99348.78;1736697;80;21268;-56
2023/07/26 02:05:23;;;;;;;12.75;10.00;;;;;;;21.05;69.57;99350.44;1805919;79;21386;-54
2023/07/26 02:08:29;;;;;;;12.68;9.93;;;;;;;21.04;69.73;99377.42;1805518;79;21896;-56
2023/07/26 02:11:37;;;;;;;15.18;9.88;;;;;;;21.03;69.87;99372.98;1803289;79;21323;-55
2023/07/26 02:14:45;;;;;;;15.50;9.93;;;;;;;21.04;70.05;99350.17;1805613;79;21615;-55
2023/07/26 02:17:52;;;;;;;16.02;9.93;;;;;;;21.06;70.24;99375.80;1766559;81;21347;-54
2023/07/26 02:20:58;;;;;;;12.80;9.45;;;;;;;21.09;70.42;99425.35;1768119;80;21327;-53
2023/07/26 02:24:06;;;;;;;13.50;9.73;;;;;;;21.11;70.60;99426.75;1806063;79;21366;-54
2023/07/26 02:27:15;;;;;;;12.10;9.85;;;;;;;21.15;70.80;99440.44;1768485;80;21316;-55
2023/07/26 02:30:20;;;;;;;14.80;10.35;;;;;;;21.19;70.96;99447.13;1805420;79;21355;-55
2023/07/26 02:33:27;;;;;;;14.10;9.83;;;;;;;21.23;71.09;99439.91;1801867;79;21826;-54
2023/07/26 02:36:32;;;;;;;13.05;9.78;;;;;;;21.26;71.21;99424.63;1805693;79;21322;-55
2023/07/26 02:39:38;;;;;;;14.50;9.45;;;;;;;21.30;71.31;99438.28;1768790;80;21328;-55
2023/07/26 02:42:44;;;;;;;14.85;10.30;;;;;;;21.35;71.47;99443.89;1769266;80;21676;-56
2023/07/26 02:45:51;;;;;;;15.58;10.63;;;;;;;21.39;71.62;99438.09;1735663;82;21220;-56
2023/07/26 02:48:57;;;;;;;19.27;9.80;;;;;;;21.42;71.72;99441.73;1770472;80;21339;-56
2023/07/26 02:52:02;;;;;;;15.88;10.55;;;;;;;21.45;71.87;99433.68;1769209;80;21832;-57
2023/07/26 02:55:09;;;;;;;16.80;10.43;;;;;;;21.49;71.97;99442.31;1769394;80;21379;-56
2023/07/26 02:58:16;;;;;;;13.88;10.82;;;;;;;21.50;72.06;99446.80;1804728;79;21323;-55
2023/07/26 03:01:22;;;;;;;17.67;10.38;;;;;;;21.49;72.15;99459.87;1772460;80;21335;-55
2023/07/26 03:04:28;;;;;;;16.93;10.63;;;;;;;21.50;72.28;99468.50;1772794;76;21367;-61
2023/07/26 03:07:36;;;;;;;16.37;10.78;;;;;;;21.51;72.39;99463.78;1805758;79;21395;-59
2023/07/26 03:10:42;;;;;;;16.80;10.43;;;;;;;21.50;72.49;99476.85;1805223;79;21350;-61
2023/07/26 03:13:48;;;;;;;17.75;10.60;;;;;;;21.51;72.65;99486.06;1805587;79;21390;-60
2023/07/26 03:16:55;;;;;;;20.08;11.15;;;;;;;21.52;72.78;99473.25;1804749;79;21899;-60
2023/07/26 03:20:02;;;;;;;20.97;11.50;;;;;;;21.52;72.92;99480.22;1766306;81;21722;-59
2023/07/26 03:23:03;;;;;;;22.42;11.00;;;;;;;21.54;73.04;99480.80;1768865;80;21343;-61
2023/07/26 03:26:12;;;;;;;20.30;11.43;;;;;;;21.57;73.18;99484.44;1806097;79;21371;-58
2023/07/26 03:29:12;;;;;;;23.75;12.00;;;;;;;21.60;73.30;99483.89;1806176;79;21389;-62
2023/07/26 03:32:19;;;;;;;23.55;12.43;;;;;;;21.64;73.43;99487.83;1768360;80;21355;-60
2023/07/26 03:35:26;;;;;;;31.12;13.98;;;;;;;21.69;73.59;99489.23;1768735;80;21347;-60
2023/07/26 03:38:32;;;;;;;21.87;11.93;;;;;;;21.77;73.73;99476.80;1735198;82;21251;-61
2023/07/26 03:41:38;;;;;;;25.70;13.32;;;;;;;21.85;73.83;99483.25;1811429;79;21409;-64
2023/07/26 03:44:43;;;;;;;23.42;13.13;;;;;;;21.95;73.97;99496.67;1802252;79;21342;-63
2023/07/26 03:47:51;;;;;;;20.43;12.15;;;;;;;22.04;74.04;99500.61;1804250;79;21342;-61
2023/07/26 03:50:57;;;;;;;21.57;12.18;;;;;;;22.12;74.12;99498.69;1805598;79;21351;-61
2023/07/26 03:54:02;;;;;;;21.90;12.13;;;;;;;22.20;74.18;99503.75;1771349;80;21868;-60
2023/07/26 03:57:08;;;;;;;23.42;12.35;;;;;;;22.25;74.25;99496.53;1735324;82;21752;-60
2023/07/26 04:00:16;;;;;;;22.15;12.28;;;;;;;22.30;74.36;99496.52;1805677;79;21370;-60
2023/07/26 04:03:21;;;;;;;23.95;11.73;;;;;;;22.37;74.46;99504.94;1809736;78;21993;-60
2023/07/26 04:06:28;;;;;;;21.57;11.48;;;;;;;22.45;74.53;99496.59;1797794;77;21318;-60
2023/07/26 04:09:34;;;;;;;21.12;11.55;;;;;;;22.50;74.59;99494.64;1783656;79;21343;-59
2023/07/26 04:12:41;;;;;;;21.40;11.28;;;;;;;22.59;74.67;99493.59;1783961;79;21327;-60
2023/07/26 04:15:48;;;;;;;23.18;11.65;;;;;;;22.67;74.75;99498.09;1777624;80;21438;-62
2023/07/26 04:18:57;;;;;;;18.92;11.00;;;;;;;22.73;74.82;99500.31;1767533;80;21548;-61
2023/07/26 04:22:02;;;;;;;20.85;10.68;;;;;;;22.81;74.88;99505.35;1768729;80;21324;-61
2023/07/26 04:25:08;;;;;;;21.68;10.65;;;;;;;22.87;74.98;99513.47;1767746;81;21351;-63
2023/07/26 04:28:15;;;;;;;14.63;9.78;;;;;;;22.93;75.06;99513.75;1767935;81;21348;-60
2023/07/26 04:31:23;;;;;;;15.43;10.48;;;;;;;22.99;75.13;99515.42;1768237;81;21367;-63
2023/07/26 04:34:30;;;;;;;17.60;10.50;;;;;;;23.05;75.22;99512.94;1767931;80;21351;-62
2023/07/26 04:37:36;;;;;;;17.60;10.63;;;;;;;23.11;75.28;99516.02;1768007;80;21867;-62
2023/07/26 04:40:46;;;;;;;15.65;10.08;;;;;;;23.16;75.39;99504.84;1767638;80;21765;-62
2023/07/26 04:43:51;;;;;;;13.13;10.00;;;;;;;23.22;75.45;99510.70;1767760;80;21355;-63
2023/07/26 04:46:56;;;;;;;14.93;10.32;;;;;;;23.31;75.54;99516.03;1767721;80;21414;-63
2023/07/26 04:50:03;;;;;;;31.00;16.85;;;;;;;23.36;75.55;99516.59;1767259;80;21355;-60
2023/07/26 04:53:08;;;;;;;27.65;17.25;;;;;;;23.41;75.59;99519.39;1775300;80;21298;-62
2023/07/26 04:56:08;;;;;;;17.55;10.00;;;;;;;23.46;75.70;99509.06;1765093;81;21354;-62
2023/07/26 04:59:14;;;;;;;14.45;11.18;;;;;;;23.54;75.77;99508.50;1766745;81;21367;-58
2023/07/26 05:02:21;;;;;;;16.35;10.08;;;;;;;23.61;75.83;99511.83;1737722;81;21366;-66
2023/07/26 05:05:27;;;;;;;14.05;9.95;;;;;;;23.69;75.86;99515.18;1732598;81;21394;-65
2023/07/26 05:08:34;;;;;;;11.90;9.35;;;;;;;23.75;75.88;99520.48;1751936;81;21366;-64
2023/07/26 05:11:40;;;;;;;13.60;9.33;;;;;;;23.81;75.96;99529.13;1768381;79;21212;-64
2023/07/26 05:14:45;;;;;;;28.83;17.32;;;;;;;23.89;76.00;99534.14;1752230;81;21366;-65
2023/07/26 05:17:50;;;;;;;15.63;9.98;;;;;;;23.94;76.02;99535.53;1767741;81;21570;-64
2023/07/26 05:20:58;;;;;;;17.23;10.63;;;;;;;24.00;76.02;99535.83;1767413;81;21208;-59
2023/07/26 05:24:03;;;;;;;14.55;9.98;;;;;;;24.07;76.08;99538.33;1768705;80;21740;-58
2023/07/26 05:27:08;;;;;;;14.65;9.58;;;;;;;24.14;76.15;99541.09;1771528;80;21709;-57
2023/07/26 05:30:17;;;;;;;16.85;9.88;;;;;;;24.24;76.21;99552.81;1770716;80;21422;-56
2023/07/26 05:33:23;;;;;;;13.43;9.85;;;;;;;24.32;76.21;99544.69;1753722;79;21355;-57
2023/07/26 05:36:30;;;;;;;15.20;10.03;;;;;;;24.38;76.22;99543.53;1768850;81;21366;-57
2023/07/26 05:39:37;;;;;;;16.45;9.45;;;;;;;24.43;76.18;99551.06;1777213;80;21615;-56
2023/07/26 05:42:43;;;;;;;13.18;8.78;;;;;;;24.48;76.21;99549.06;1768586;80;21366;-58
2023/07/26 05:45:50;;;;;;;16.40;9.28;;;;;;;24.56;76.27;99558.27;1731236;82;21368;-57
2023/07/26 05:48:58;;;;;;;13.88;8.35;;;;;;;24.66;76.31;99558.27;1739545;82;21222;-56
2023/07/26 05:52:04;;;;;;;17.67;10.98;;;;;;;24.77;76.28;99559.88;1771261;80;21356;-57
2023/07/26 05:55:10;;;;;;;13.80;8.63;;;;;;;24.81;76.19;99561.00;1753819;79;22059;-58
2023/07/26 05:58:16;;;;;;;11.70;8.73;;;;;;;24.88;76.12;99563.45;1777358;79;21659;-59
2023/07/26 06:01:22;;;;;;;18.57;8.45;;;;;;;24.92;76.09;99565.41;1770195;79;21272;-61
2023/07/26 06:04:28;;;;;;;13.55;8.43;;;;;;;24.99;76.05;99553.31;1764517;79;21235;-50
2023/07/26 06:07:35;;;;;;;13.43;9.35;;;;;;;25.09;76.05;99548.20;1776063;80;21198;-50
2023/07/26 07:08:48;;;;;;;10.55;8.68;;;;;;;26.46;74.78;99555.09;1874611;76;22276;-51
2023/07/26 07:11:57;;;;;;;13.83;8.95;;;;;;;26.49;74.59;99557.29;1775792;79;21433;-51
2023/07/26 07:15:03;;;;;;;13.93;9.23;;;;;;;26.57;74.43;99556.63;1853712;77;21858;-48
2023/07/26 07:18:09;;;;;;;12.88;8.68;;;;;;;26.63;74.35;99558.23;1830302;77;21320;-50
2023/07/26 07:21:16;;;;;;;15.25;8.95;;;;;;;26.69;74.27;99562.67;1778862;79;21867;-53
2023/07/26 07:24:23;;;;;;;14.13;9.75;;;;;;;26.76;74.24;99565.95;1807505;79;22140;-49
2023/07/26 07:27:31;;;;;;;13.85;8.33;;;;;;;26.85;74.18;99566.10;1776859;79;21172;-54
2023/07/26 07:30:39;;;;;;;14.07;8.13;;;;;;;26.93;74.11;99567.68;1794300;79;21192;-50
2023/07/26 07:33:46;;;;;;;11.78;8.55;;;;;;;26.99;73.89;99552.41;1808844;79;21258;-50
2023/07/26 07:36:50;;;;;;;13.28;7.92;;;;;;;27.04;73.77;99551.50;1799152;79;21350;-51
2023/07/26 07:39:57;;;;;;;11.00;7.80;;;;;;;27.11;73.66;99547.75;1792637;79;21248;-53
2023/07/26 07:43:03;;;;;;;13.78;7.67;;;;;;;27.20;73.54;99555.20;1807027;79;21207;-51
2023/07/26 07:46:09;;;;;;;12.47;7.75;;;;;;;27.29;73.42;99556.20;1783773;79;21931;-50
2023/07/26 07:49:15;;;;;;;11.80;8.00;;;;;;;27.36;73.21;99548.23;1713191;83;21261;-48
2023/07/26 07:52:20;;;;;;;15.95;8.08;;;;;;;27.44;73.00;99551.75;1776526;79;21557;-51
2023/07/26 07:55:27;;;;;;;15.83;8.23;;;;;;;27.49;72.74;99562.92;1780505;80;21756;-53
2023/07/26 07:58:32;;;;;;;12.98;7.92;;;;;;;27.52;72.51;99554.44;1763438;80;21348;-52
2023/07/26 08:01:38;;;;;;;11.97;7.30;;;;;;;27.58;72.44;99556.02;1722148;82;21236;-51
2023/07/26 08:04:45;;;;;;;11.55;7.75;;;;;;;27.65;72.29;99555.88;1787926;79;21306;-51
2023/07/26 08:07:51;;;;;;;10.18;7.85;;;;;;;27.70;72.07;99550.76;1762908;78;21768;-52
2023/07/26 08:10:58;;;;;;;12.13;7.30;;;;;;;27.73;71.82;99557.98;1744544;81;21263;-50
2023/07/26 08:14:05;;;;;;;12.45;8.25;;;;;;;27.77;71.69;99561.87;1759960;80;21390;-50
2023/07/26 08:17:13;;;;;;;11.10;8.00;;;;;;;27.86;71.58;99564.79;1763246;80;21359;-51
2023/07/26 08:20:19;;;;;;;15.13;8.28;;;;;;;27.94;71.42;99561.89;1796358;79;21445;-51
2023/07/26 08:23:26;;;;;;;11.38;7.47;;;;;;;28.03;71.23;99550.18;1795441;79;21331;-51
2023/07/26 08:26:33;;;;;;;13.38;7.80;;;;;;;28.10;70.94;99557.66;1795554;78;21195;-48
2023/07/26 08:29:39;;;;;;;11.03;7.97;;;;;;;28.16;70.64;99563.44;1791543;80;21191;-52
2023/07/26 08:32:44;;;;;;;13.03;8.18;;;;;;;28.20;70.42;99555.47;1764720;80;21203;-51
2023/07/26 08:35:49;;;;;;;13.03;7.87;;;;;;;28.26;70.26;99555.62;1789187;78;21191;-51
2023/07/26 08:38:56;;;;;;;10.82;7.60;;;;;;;28.33;69.99;99552.40;1795145;80;21266;-51
2023/07/26 08:42:02;;;;;;;11.08;8.03;;;;;;;28.37;69.76;99540.19;1763402;81;21208;-50
2023/07/26 08:45:09;;;;;;;11.43;7.75;;;;;;;28.44;69.66;99541.19;1778922;78;21685;-51
2023/07/26 08:48:15;;;;;;;13.60;8.00;;;;;;;28.54;69.61;99528.34;1810237;77;21294;-50
2023/07/26 08:51:21;;;;;;;12.03;7.42;;;;;;;28.60;69.34;99527.08;1801857;79;21358;-49
2023/07/26 08:54:28;;;;;;;12.90;7.42;;;;;;;28.72;68.95;99535.25;1785613;79;21350;-54
2023/07/26 08:57:34;;;;;;;10.18;7.42;;;;;;;28.72;68.95;99535.25;1762441;81;21629;-54
2023/07/26 09:00:41;;;;;;;12.07;7.70;;;;;;;28.85;68.18;99537.22;1781119;78;21236;-52
2023/07/26 09:03:47;;;;;;;9.98;7.08;;;;;;;28.85;68.18;99537.22;1795897;77;21919;-53
2023/07/26 09:06:56;;;;;;;9.75;7.60;;;;;;;28.98;67.80;99546.23;1774077;80;21347;-56
2023/07/26 09:10:02;;;;;;;9.18;7.35;;;;;;;28.98;67.80;99546.23;1775316;78;21897;-53
2023/07/26 09:13:21;;;;;;;10.23;6.87;;;;;;;29.03;67.73;99556.55;1776770;79;21321;-54
2023/07/26 09:25:18;;;;;;;22.15;11.95;;;;;;;29.32;66.96;99558.41;1860476;75;22269;-56
2023/07/26 09:28:26;;;;;;;14.47;7.92;;;;;;;29.46;66.43;99564.86;1698393;82;21199;-55
2023/07/26 09:31:42;;;;;;;11.95;7.60;;;;;;;29.46;66.43;99564.86;1731639;82;21211;-54
2023/07/26 09:34:49;;;;;;;13.80;7.45;;;;;;;29.57;66.35;99559.79;1752550;80;21362;-56
2023/07/26 09:37:57;;;;;;;12.30;6.78;;;;;;;29.68;66.14;99567.72;1744514;80;21350;-57
2023/07/26 09:41:04;;;;;;;10.13;7.72;;;;;;;29.83;65.49;99570.70;1773023;81;21216;-53
2023/07/26 09:44:12;;;;;;;13.62;7.80;;;;;;;29.83;65.49;99570.70;1745791;81;21852;-55
2023/07/26 09:47:18;;;;;;;11.57;8.23;;;;;;;29.88;65.23;99557.88;1725748;81;21901;-55
2023/07/26 09:50:37;;;;;;;11.43;7.40;;;;;;;29.95;65.01;99566.16;1737475;82;21378;-54
2023/07/26 09:53:42;;;;;;;12.60;8.53;;;;;;;30.01;64.79;99566.84;1763441;79;21217;-56
2023/07/26 09:56:48;;;;;;;13.28;9.00;;;;;;;30.10;64.58;99567.72;1758060;79;21386;-54
2023/07/26 09:59:57;;;;;;;14.43;8.33;;;;;;;30.15;64.29;99562.78;1756746;80;21410;-55
2023/07/26 10:03:08;;;;;;;12.20;7.37;;;;;;;30.16;63.98;99570.09;1776371;80;21487;-55
2023/07/26 10:06:14;;;;;;;10.65;7.17;;;;;;;30.18;63.58;99561.29;1753597;80;21379;-60
2023/07/26 10:12:44;;;;;;;10.45;7.20;;;;;;;30.26;62.97;99556.30;1750148;79;21374;-62
2023/07/26 10:15:59;;;;;;;9.25;7.15;;;;;;;30.48;62.58;99525.15;1873005;76;20189;-55
2023/07/26 10:19:06;;;;;;;11.48;6.53;;;;;;;30.53;62.40;99527.26;1808228;78;21375;-57
2023/07/26 10:22:14;;;;;;;11.93;7.30;;;;;;;30.67;62.16;99513.59;1807639;78;21358;-59
2023/07/26 10:25:21;;;;;;;11.43;7.25;;;;;;;30.72;61.71;99505.77;1805813;78;21351;-57
2023/07/26 10:28:26;;;;;;;13.10;7.62;;;;;;;30.74;61.39;99490.73;1808012;78;21343;-58
2023/07/26 10:31:37;;;;;;;11.05;7.37;;;;;;;30.81;61.08;99486.05;1807766;79;21867;-61
2023/07/26 10:34:42;;;;;;;10.00;7.53;;;;;;;30.93;60.83;99508.27;1808163;78;21700;-58
2023/07/26 10:37:47;;;;;;;15.15;9.65;;;;;;;31.05;60.49;99505.59;1791341;77;21898;-59
2023/07/26 10:40:52;;;;;;;11.38;7.20;;;;;;;31.13;60.14;99509.62;1734147;82;21324;-57
2023/07/26 10:44:00;;;;;;;11.05;6.78;;;;;;;31.23;59.88;99507.85;1801346;78;21751;-63
2023/07/26 10:47:09;;;;;;;9.10;6.90;;;;;;;31.28;59.47;99485.06;1799657;78;21421;-61
2023/07/26 10:50:17;;;;;;;9.05;7.05;;;;;;;31.28;59.02;99480.81;1796107;79;21195;-61
2023/07/26 10:53:43;;;;;;;10.68;6.78;;;;;;;31.26;58.64;99466.17;1806707;78;21255;-59
2023/07/26 10:56:48;;;;;;;10.00;6.75;;;;;;;31.39;58.53;99454.72;1805145;77;21199;-60
2023/07/26 11:00:17;;;;;;;10.65;7.08;;;;;;;31.52;58.25;99448.62;1779617;79;21362;-60
2023/07/26 11:03:31;;;;;;;11.22;7.12;;;;;;;31.68;58.05;99432.77;1795824;79;21236;-62
2023/07/26 11:07:04;;;;;;;11.30;7.90;;;;;;;31.86;57.78;99420.23;1803279;79;21211;-61
2023/07/26 11:10:38;;;;;;;15.70;7.22;;;;;;;32.05;57.37;99465.96;1807544;79;21422;-61
2023/07/26 11:13:51;;;;;;;9.08;7.03;;;;;;;32.26;57.02;99492.38;1805369;78;21678;-57
2023/07/26 11:17:02;;;;;;;14.10;7.55;;;;;;;32.43;56.61;99529.16;1792348;77;21858;-62
2023/07/26 11:20:11;;;;;;;10.88;7.40;;;;;;;32.48;56.20;99550.80;1785441;79;21370;-61
2023/07/26 11:23:27;;;;;;;14.75;7.87;;;;;;;32.43;55.59;99569.44;1772392;80;21359;-61
2023/07/26 11:26:32;;;;;;;12.28;6.78;;;;;;;32.33;55.19;99581.95;1800920;78;21355;-62
2023/07/26 11:29:40;;;;;;;10.35;6.92;;;;;;;32.35;54.86;99577.36;1749619;79;21274;-61
2023/07/26 11:32:54;;;;;;;11.00;7.03;;;;;;;32.39;54.46;99567.86;1801070;79;21351;-60
2023/07/26 11:36:02;;;;;;;12.50;7.35;;;;;;;32.49;54.16;99558.97;1802873;77;21228;-60
2023/07/26 11:39:08;;;;;;;11.40;7.20;;;;;;;32.58;53.83;99554.11;1805600;79;21811;-61
2023/07/26 11:42:15;;;;;;;12.93;7.92;;;;;;;32.54;53.31;99553.72;1767787;80;21279;-60
2023/07/26 11:45:20;;;;;;;12.60;8.05;;;;;;;32.53;53.04;99551.47;1736068;82;21224;-61
2023/07/26 11:48:29;;;;;;;10.58;7.60;;;;;;;32.56;52.68;99543.69;1713451;83;21494;-59
2023/07/26 11:51:39;;;;;;;11.97;7.10;;;;;;;32.53;52.26;99540.70;1767630;80;21473;-59
2023/07/26 11:55:02;;;;;;;12.15;7.50;;;;;;;32.46;51.94;99538.39;1787274;79;21192;-61
2023/07/26 11:58:10;;;;;;;10.70;7.50;;;;;;;32.41;51.74;99543.44;1774468;80;21217;-61
2023/07/26 12:01:17;;;;;;;10.43;6.47;;;;;;;32.47;51.60;99542.06;1769660;80;21205;-58
2023/07/26 12:04:24;;;;;;;11.95;7.10;;;;;;;32.50;51.36;99553.56;1775457;79;21658;-59
2023/07/26 12:07:30;;;;;;;11.33;7.08;;;;;;;32.55;51.12;99542.05;1785018;80;21837;-60
2023/07/26 12:10:45;;;;;;;12.05;6.95;;;;;;;32.56;50.79;99539.44;1768764;80;21702;-60
2023/07/26 12:13:51;;;;;;;15.68;7.33;;;;;;;32.56;50.58;99528.68;1775878;80;21212;-61
2023/07/26 12:16:59;;;;;;;13.08;8.00;;;;;;;32.53;50.38;99515.19;1757645;80;21217;-62
2023/07/26 12:20:12;;;;;;;10.03;6.85;;;;;;;32.51;50.16;99510.47;1764180;79;21227;-60
2023/07/26 12:23:21;;;;;;;11.03;7.37;;;;;;;32.45;49.95;99494.23;1767584;81;21724;-61
2023/07/26 12:26:33;;;;;;;9.73;6.33;;;;;;;32.45;49.76;99474.97;1745600;81;21192;-60
2023/07/26 12:29:40;;;;;;;12.25;7.22;;;;;;;32.47;49.61;99472.06;1776552;80;21200;-61
2023/07/26 12:32:47;;;;;;;8.98;6.75;;;;;;;32.47;49.45;99479.72;1778402;80;21719;-63
2023/07/26 12:35:53;;;;;;;11.35;6.87;;;;;;;32.43;49.30;99482.40;1778285;80;21208;-61
2023/07/26 12:39:00;;;;;;;13.28;7.87;;;;;;;32.40;49.23;99477.41;1764687;79;21277;-62
2023/07/26 12:42:08;;;;;;;14.87;8.03;;;;;;;32.48;49.20;99463.78;1736718;82;21799;-62
2023/07/26 12:45:14;;;;;;;17.02;8.00;;;;;;;32.61;49.15;99463.29;1789274;79;21235;-62
2023/07/26 12:48:41;;;;;;;13.75;9.25;;;;;;;32.70;49.04;99461.22;1806793;78;21433;-59
2023/07/26 13:02:20;;;;;;;12.88;7.50;;;;;;;32.41;48.38;99438.58;1808534;78;22322;-60
2023/07/26 13:05:27;;;;;;;10.53;7.85;;;;;;;32.25;48.29;99424.72;1754707;80;21215;-59
2023/07/26 13:08:34;;;;;;;14.43;8.45;;;;;;;32.11;48.21;99401.47;1754455;81;21590;-59
2023/07/26 13:11:41;;;;;;;14.05;8.10;;;;;;;31.98;48.09;99386.38;1753455;81;21247;-58
2023/07/26 13:14:46;;;;;;;11.90;7.80;;;;;;;31.83;48.02;99381.23;1718507;83;21755;-59
2023/07/26 13:17:54;;;;;;;14.75;9.35;;;;;;;31.69;47.95;99392.80;1701530;83;21383;-61
2023/07/26 13:21:00;;;;;;;15.50;9.00;;;;;;;31.54;47.98;99399.59;1695858;83;21375;-60
2023/07/26 13:24:06;;;;;;;13.78;7.78;;;;;;;31.40;48.13;99403.19;1716605;83;21192;-59
2023/07/26 13:27:12;;;;;;;13.88;7.80;;;;;;;31.26;48.17;99405.35;1695914;83;21391;-59
2023/07/26 13:30:18;;;;;;;14.93;8.15;;;;;;;31.16;48.31;99422.08;1695600;84;21206;-59
2023/07/26 13:33:25;;;;;;;12.80;7.65;;;;;;;31.09;48.37;99423.77;1716544;83;21207;-62
2023/07/26 13:36:33;;;;;;;9.83;7.53;;;;;;;31.06;48.49;99417.36;1698169;84;21958;-62
2023/07/26 13:39:38;;;;;;;10.82;7.17;;;;;;;31.05;48.60;99423.59;1717308;83;21219;-58
2023/07/26 13:42:45;;;;;;;9.45;7.10;;;;;;;31.18;48.81;99436.73;1699279;84;21427;-61
2023/07/26 13:45:50;;;;;;;14.73;7.08;;;;;;;31.37;48.90;99439.23;1694567;83;22318;-61
2023/07/26 13:48:56;;;;;;;10.48;7.40;;;;;;;31.51;48.86;99445.52;1693598;84;21261;-62
2023/07/26 13:52:03;;;;;;;12.35;6.90;;;;;;;31.61;48.84;99436.11;1717161;83;21222;-60
2023/07/26 13:55:10;;;;;;;10.72;7.03;;;;;;;31.68;48.80;99434.18;1700896;84;21406;-59
2023/07/26 13:58:16;;;;;;;14.03;7.40;;;;;;;31.77;48.75;99439.22;1696369;84;21379;-61
2023/07/26 14:01:23;;;;;;;13.30;8.03;;;;;;;31.84;48.65;99438.16;1683695;83;21277;-57
2023/07/26 14:04:30;;;;;;;9.85;6.90;;;;;;;31.86;48.50;99440.89;1736305;82;21203;-58
2023/07/26 14:07:37;;;;;;;14.13;6.92;;;;;;;31.89;48.34;99439.37;1736135;81;21215;-59
2023/07/26 14:10:43;;;;;;;10.98;6.70;;;;;;;31.83;48.11;99437.29;1736341;82;21418;-58
2023/07/26 14:13:51;;;;;;;15.48;6.92;;;;;;;31.73;47.97;99443.30;1736420;81;21874;-59
2023/07/26 14:16:57;;;;;;;12.40;6.90;;;;;;;31.63;47.83;99440.02;1736739;81;21350;-57
2023/07/26 14:20:03;;;;;;;21.80;13.08;;;;;;;31.50;47.71;99440.47;1737193;82;21403;-59
2023/07/26 14:23:07;;;;;;;14.93;11.05;;;;;;;31.40;47.63;99452.13;1737447;81;21366;-58
2023/07/26 14:26:14;;;;;;;15.45;7.30;;;;;;;31.33;47.57;99446.73;1737406;81;21353;-57
2023/07/26 14:29:22;;;;;;;11.95;7.83;;;;;;;31.31;47.53;99442.83;1737015;82;21358;-58
2023/07/26 14:32:27;;;;;;;12.07;8.03;;;;;;;31.30;47.50;99436.91;1736947;81;21882;-58
2023/07/26 14:35:32;;;;;;;12.75;8.60;;;;;;;31.32;47.44;99438.82;1736931;82;21330;-57
2023/07/26 14:38:38;;;;;;;11.50;7.97;;;;;;;31.35;47.39;99447.24;1737676;82;21355;-57
2023/07/26 14:41:44;;;;;;;15.45;8.58;;;;;;;31.35;47.35;99444.41;1737480;81;21346;-57
2023/07/26 14:44:49;;;;;;;15.70;8.35;;;;;;;31.35;47.34;99444.41;1737500;82;21370;-57
2023/07/26 14:47:55;;;;;;;11.85;7.33;;;;;;;31.44;47.35;99448.05;1737848;81;21390;-57
2023/07/26 14:51:02;;;;;;;11.83;7.55;;;;;;;31.56;47.34;99447.61;1746588;80;21231;-58
2023/07/26 14:54:10;;;;;;;12.60;7.25;;;;;;;31.68;47.22;99437.82;1748427;82;21808;-57
2023/07/26 14:57:18;;;;;;;15.05;7.95;;;;;;;31.81;47.06;99438.78;1747871;80;21243;-58
2023/07/26 15:00:46;;;;;;;14.35;7.83;;;;;;;31.90;46.98;99433.36;1749769;82;21244;-57
2023/07/26 15:03:52;;;;;;;14.33;7.55;;;;;;;32.02;46.96;99439.73;1644214;87;21365;-58
2023/07/26 15:06:58;;;;;;;13.08;7.72;;;;;;;32.10;46.85;99438.88;1642967;85;21449;-59
2023/07/26 15:10:07;;;;;;;15.25;7.60;;;;;;;32.17;46.71;99438.34;1646310;87;21437;-58
2023/07/26 15:13:14;;;;;;;14.25;7.85;;;;;;;32.14;46.53;99446.95;1649932;85;21808;-58
2023/07/26 15:16:20;;;;;;;12.00;7.25;;;;;;;32.06;46.33;99448.39;1651812;85;21259;-57
2023/07/26 15:19:27;;;;;;;10.70;7.97;;;;;;;31.93;46.24;99438.38;1684794;85;21237;-57
2023/07/26 15:22:32;;;;;;;14.87;8.33;;;;;;;31.87;46.17;99427.57;1682901;85;21376;-57
2023/07/26 15:25:38;;;;;;;13.70;7.40;;;;;;;31.85;46.17;99431.32;1665546;85;21368;-56
2023/07/26 15:28:44;;;;;;;14.13;7.22;;;;;;;31.77;46.13;99421.66;1652789;85;21484;-57
2023/07/26 15:31:50;;;;;;;15.05;7.90;;;;;;;31.73;46.14;99424.09;1652890;86;21867;-59
2023/07/26 15:35:02;;;;;;;16.15;7.70;;;;;;;31.68;46.21;99429.94;1652938;86;21911;-57
2023/07/26 15:38:08;;;;;;;13.15;8.00;;;;;;;31.60;46.30;99419.47;1652348;86;21254;-57
2023/07/26 15:41:15;;;;;;;16.40;8.23;;;;;;;31.58;46.39;99425.47;1653077;86;21253;-57
2023/07/26 15:44:21;;;;;;;17.17;7.67;;;;;;;31.58;46.53;99422.64;1652591;86;21239;-56
2023/07/26 15:47:30;;;;;;;12.78;7.50;;;;;;;31.63;46.70;99422.46;1654098;86;21522;-57
2023/07/26 15:50:37;;;;;;;15.38;7.72;;;;;;;31.64;46.79;99423.27;1651527;86;21236;-57